Berwick, Iowa
Current Conditions -  °F | °C
As of 5:55 PM on Saturday 25 Oct 2014 (Local Time) from KIKV Reporting Station
Clear Clear  
Wind Chill: 64°   Ceiling: Unl
Heat Index: 64°   Visibility: 10mi
Dew Point: 37°   Wind: 5mph
Humidity: 37%   Direction: 360°N
Pressure: 30.05"   Gusts: NA
Location:  41.66°N, 93.55°W
Report Text: KIKV 252255Z AUTO 36004KT 10SM CLR 18/03 A3005 RMK AO2
Loading
Personal Weather Stations






























Interactive Weather Map
Tropical Storm Tracking
New forecast layout! Learn more

10-Day Weather Forecast

Advertisements
Track Severe Weather on mobile